sensor_id;sensor_type;location;lat;lon;timestamp;temperature;humidity
10889;DHT22;5497;51.388;6.780;2022-10-16T00:00:42;13.20;99.90
10889;DHT22;5497;51.388;6.780;2022-10-16T00:03:15;13.10;99.90
10889;DHT22;5497;51.388;6.780;2022-10-16T00:05:43;13.10;99.90
10889;DHT22;5497;51.388;6.780;2022-10-16T00:08:17;13.10;99.90
10889;DHT22;5497;51.388;6.780;2022-10-16T00:10:46;13.10;99.90
10889;DHT22;5497;51.388;6.780;2022-10-16T00:13:36;13.10;99.90
10889;DHT22;5497;51.388;6.780;2022-10-16T00:16:06;13.00;99.90
10889;DHT22;5497;51.388;6.780;2022-10-16T00:18:38;13.00;99.90
10889;DHT22;5497;51.388;6.780;2022-10-16T00:21:16;13.00;99.90
10889;DHT22;5497;51.388;6.780;2022-10-16T00:24:02;13.00;99.90
10889;DHT22;5497;51.388;6.780;2022-10-16T00:26:37;12.90;99.90
10889;DHT22;5497;51.388;6.780;2022-10-16T00:29:05;12.80;99.90
10889;DHT22;5497;51.388;6.780;2022-10-16T00:31:33;12.90;99.90
10889;DHT22;5497;51.388;6.780;2022-10-16T00:34:09;12.90;99.90
10889;DHT22;5497;51.388;6.780;2022-10-16T00:36:43;12.90;99.90
10889;DHT22;5497;51.388;6.780;2022-10-16T00:39:11;12.80;99.90
10889;DHT22;5497;51.388;6.780;2022-10-16T00:41:41;12.80;99.90
10889;DHT22;5497;51.388;6.780;2022-10-16T00:47:01;12.80;99.90
10889;DHT22;5497;51.388;6.780;2022-10-16T00:49:36;12.80;99.90
10889;DHT22;5497;51.388;6.780;2022-10-16T00:52:06;12.80;99.90
10889;DHT22;5497;51.388;6.780;2022-10-16T00:54:39;12.80;99.90
10889;DHT22;5497;51.388;6.780;2022-10-16T00:57:08;12.80;99.90
10889;DHT22;5497;51.388;6.780;2022-10-16T00:59:39;12.80;99.90
10889;DHT22;5497;51.388;6.780;2022-10-16T01:02:11;12.80;99.90
10889;DHT22;5497;51.388;6.780;2022-10-16T01:04:42;12.80;99.90
10889;DHT22;5497;51.388;6.780;2022-10-16T01:07:15;12.80;99.90
10889;DHT22;5497;51.388;6.780;2022-10-16T01:09:54;12.80;99.90
10889;DHT22;5497;51.388;6.780;2022-10-16T01:12:33;12.80;99.90
10889;DHT22;5497;51.388;6.780;2022-10-16T01:15:08;12.80;99.90
10889;DHT22;5497;51.388;6.780;2022-10-16T01:17:44;12.80;99.90
10889;DHT22;5497;51.388;6.780;2022-10-16T01:20:23;12.80;99.90
10889;DHT22;5497;51.388;6.780;2022-10-16T01:23:04;12.80;99.90
10889;DHT22;5497;51.388;6.780;2022-10-16T01:25:49;12.80;99.90
10889;DHT22;5497;51.388;6.780;2022-10-16T01:28:21;12.70;99.90
10889;DHT22;5497;51.388;6.780;2022-10-16T01:30:49;12.70;99.90
10889;DHT22;5497;51.388;6.780;2022-10-16T01:33:18;12.80;99.90
10889;DHT22;5497;51.388;6.780;2022-10-16T01:38:14;12.90;99.90
10889;DHT22;5497;51.388;6.780;2022-10-16T01:40:44;13.00;99.90
10889;DHT22;5497;51.388;6.780;2022-10-16T01:43:13;13.10;99.90
10889;DHT22;5497;51.388;6.780;2022-10-16T01:45:42;13.10;99.90
10889;DHT22;5497;51.388;6.780;2022-10-16T01:48:11;13.20;99.90
10889;DHT22;5497;51.388;6.780;2022-10-16T01:50:39;13.20;99.90
10889;DHT22;5497;51.388;6.780;2022-10-16T01:53:08;13.20;99.90
10889;DHT22;5497;51.388;6.780;2022-10-16T01:55:37;13.30;99.90
10889;DHT22;5497;51.388;6.780;2022-10-16T01:58:05;13.30;99.90
10889;DHT22;5497;51.388;6.780;2022-10-16T02:00:33;13.40;99.90
10889;DHT22;5497;51.388;6.780;2022-10-16T02:03:02;13.40;99.90
10889;DHT22;5497;51.388;6.780;2022-10-16T02:05:30;13.40;99.90
10889;DHT22;5497;51.388;6.780;2022-10-16T02:07:57;13.40;99.90
10889;DHT22;5497;51.388;6.780;2022-10-16T02:10:24;13.30;99.90
10889;DHT22;5497;51.388;6.780;2022-10-16T02:12:57;13.20;99.90
10889;DHT22;5497;51.388;6.780;2022-10-16T02:15:25;13.10;99.90
10889;DHT22;5497;51.388;6.780;2022-10-16T02:17:52;13.10;99.90
10889;DHT22;5497;51.388;6.780;2022-10-16T02:20:21;13.10;99.90
10889;DHT22;5497;51.388;6.780;2022-10-16T02:22:48;13.00;99.90
10889;DHT22;5497;51.388;6.780;2022-10-16T02:25:17;13.00;99.90
10889;DHT22;5497;51.388;6.780;2022-10-16T02:27:49;13.00;99.90
10889;DHT22;5497;51.388;6.780;2022-10-16T02:30:19;13.00;99.90
10889;DHT22;5497;51.388;6.780;2022-10-16T02:32:47;13.00;99.90
10889;DHT22;5497;51.388;6.780;2022-10-16T02:35:15;13.10;99.90
10889;DHT22;5497;51.388;6.780;2022-10-16T02:37:48;13.10;99.90
10889;DHT22;5497;51.388;6.780;2022-10-16T02:40:15;13.20;99.90
10889;DHT22;5497;51.388;6.780;2022-10-16T02:42:43;13.20;99.90
10889;DHT22;5497;51.388;6.780;2022-10-16T02:45:10;13.20;99.90
10889;DHT22;5497;51.388;6.780;2022-10-16T02:47:37;12.50;99.90
10889;DHT22;5497;51.388;6.780;2022-10-16T02:50:04;13.20;99.90
10889;DHT22;5497;51.388;6.780;2022-10-16T02:52:31;13.20;99.90
10889;DHT22;5497;51.388;6.780;2022-10-16T02:55:00;13.30;99.90
10889;DHT22;5497;51.388;6.780;2022-10-16T02:57:27;13.30;99.90
10889;DHT22;5497;51.388;6.780;2022-10-16T02:59:54;13.30;99.90
10889;DHT22;5497;51.388;6.780;2022-10-16T03:02:21;13.80;99.90
10889;DHT22;5497;51.388;6.780;2022-10-16T03:04:48;13.40;99.90
10889;DHT22;5497;51.388;6.780;2022-10-16T03:07:15;13.30;99.90
10889;DHT22;5497;51.388;6.780;2022-10-16T03:09:42;13.40;99.90
10889;DHT22;5497;51.388;6.780;2022-10-16T03:12:10;13.40;99.90
10889;DHT22;5497;51.388;6.780;2022-10-16T03:14:37;13.40;99.90
10889;DHT22;5497;51.388;6.780;2022-10-16T03:17:05;13.40;99.90
10889;DHT22;5497;51.388;6.780;2022-10-16T03:19:32;13.40;99.90
10889;DHT22;5497;51.388;6.780;2022-10-16T03:21:59;13.40;99.90
10889;DHT22;5497;51.388;6.780;2022-10-16T03:24:25;13.30;99.90
10889;DHT22;5497;51.388;6.780;2022-10-16T03:26:52;13.30;99.90
10889;DHT22;5497;51.388;6.780;2022-10-16T03:29:21;13.30;99.90
10889;DHT22;5497;51.388;6.780;2022-10-16T03:31:47;13.30;99.90
10889;DHT22;5497;51.388;6.780;2022-10-16T03:34:15;13.30;99.90
10889;DHT22;5497;51.388;6.780;2022-10-16T03:36:41;13.30;99.90
10889;DHT22;5497;51.388;6.780;2022-10-16T03:39:08;13.20;99.90
10889;DHT22;5497;51.388;6.780;2022-10-16T03:41:35;13.20;99.90
10889;DHT22;5497;51.388;6.780;2022-10-16T03:44:02;13.20;99.90
10889;DHT22;5497;51.388;6.780;2022-10-16T03:46:34;13.20;99.90
10889;DHT22;5497;51.388;6.780;2022-10-16T03:49:01;13.10;99.90
10889;DHT22;5497;51.388;6.780;2022-10-16T03:51:28;13.10;99.90
10889;DHT22;5497;51.388;6.780;2022-10-16T03:53:55;13.10;99.90
10889;DHT22;5497;51.388;6.780;2022-10-16T03:56:21;13.10;99.90
10889;DHT22;5497;51.388;6.780;2022-10-16T03:58:48;13.10;99.90
10889;DHT22;5497;51.388;6.780;2022-10-16T04:01:15;13.00;99.90
10889;DHT22;5497;51.388;6.780;2022-10-16T04:03:43;13.00;99.90
10889;DHT22;5497;51.388;6.780;2022-10-16T04:06:13;12.90;99.90
10889;DHT22;5497;51.388;6.780;2022-10-16T04:08:42;12.90;99.90
10889;DHT22;5497;51.388;6.780;2022-10-16T04:11:09;13.00;99.90
10889;DHT22;5497;51.388;6.780;2022-10-16T04:13:36;13.00;99.90
10889;DHT22;5497;51.388;6.780;2022-10-16T04:16:03;12.90;99.90
10889;DHT22;5497;51.388;6.780;2022-10-16T04:18:29;12.90;99.90
10889;DHT22;5497;51.388;6.780;2022-10-16T04:21:01;12.90;99.90
10889;DHT22;5497;51.388;6.780;2022-10-16T04:23:28;12.90;99.90
10889;DHT22;5497;51.388;6.780;2022-10-16T04:25:54;12.90;99.90
10889;DHT22;5497;51.388;6.780;2022-10-16T04:28:21;12.90;99.90
10889;DHT22;5497;51.388;6.780;2022-10-16T04:30:48;12.90;99.90
10889;DHT22;5497;51.388;6.780;2022-10-16T04:33:16;12.90;99.90
10889;DHT22;5497;51.388;6.780;2022-10-16T04:35:42;12.90;99.90
10889;DHT22;5497;51.388;6.780;2022-10-16T04:38:11;12.80;99.90
10889;DHT22;5497;51.388;6.780;2022-10-16T04:40:38;11.90;99.90
10889;DHT22;5497;51.388;6.780;2022-10-16T04:43:05;12.80;99.90
10889;DHT22;5497;51.388;6.780;2022-10-16T04:45:32;12.70;99.90
10889;DHT22;5497;51.388;6.780;2022-10-16T04:47:59;12.70;99.90
10889;DHT22;5497;51.388;6.780;2022-10-16T04:50:26;12.70;99.90
10889;DHT22;5497;51.388;6.780;2022-10-16T04:53:05;12.70;99.90
10889;DHT22;5497;51.388;6.780;2022-10-16T04:55:34;12.60;99.90
10889;DHT22;5497;51.388;6.780;2022-10-16T04:58:01;12.70;99.90
10889;DHT22;5497;51.388;6.780;2022-10-16T05:00:27;12.70;99.90
10889;DHT22;5497;51.388;6.780;2022-10-16T05:02:55;12.60;99.90
10889;DHT22;5497;51.388;6.780;2022-10-16T05:05:22;12.70;99.90
10889;DHT22;5497;51.388;6.780;2022-10-16T05:07:49;12.60;99.90
10889;DHT22;5497;51.388;6.780;2022-10-16T05:10:16;12.70;99.90
10889;DHT22;5497;51.388;6.780;2022-10-16T05:12:44;12.70;99.90
10889;DHT22;5497;51.388;6.780;2022-10-16T05:15:11;12.70;99.90
10889;DHT22;5497;51.388;6.780;2022-10-16T05:17:38;12.70;99.90
10889;DHT22;5497;51.388;6.780;2022-10-16T05:20:05;12.70;99.90
10889;DHT22;5497;51.388;6.780;2022-10-16T05:22:32;12.70;99.90
10889;DHT22;5497;51.388;6.780;2022-10-16T05:24:59;12.80;99.90
10889;DHT22;5497;51.388;6.780;2022-10-16T05:27:26;12.80;99.90
10889;DHT22;5497;51.388;6.780;2022-10-16T05:29:54;12.80;99.90
10889;DHT22;5497;51.388;6.780;2022-10-16T05:32:21;12.80;99.90
10889;DHT22;5497;51.388;6.780;2022-10-16T05:34:47;12.80;99.90
10889;DHT22;5497;51.388;6.780;2022-10-16T05:37:14;12.80;99.90
10889;DHT22;5497;51.388;6.780;2022-10-16T05:39:41;12.80;99.90
10889;DHT22;5497;51.388;6.780;2022-10-16T05:42:08;12.80;99.90
10889;DHT22;5497;51.388;6.780;2022-10-16T05:44:35;12.90;99.90
10889;DHT22;5497;51.388;6.780;2022-10-16T05:47:03;12.90;99.90
10889;DHT22;5497;51.388;6.780;2022-10-16T05:49:30;12.60;99.90
10889;DHT22;5497;51.388;6.780;2022-10-16T05:51:57;12.90;99.90
10889;DHT22;5497;51.388;6.780;2022-10-16T05:54:24;12.90;99.90
10889;DHT22;5497;51.388;6.780;2022-10-16T05:56:51;12.90;99.90
10889;DHT22;5497;51.388;6.780;2022-10-16T05:59:17;12.80;99.90
10889;DHT22;5497;51.388;6.780;2022-10-16T06:01:44;12.90;99.90
10889;DHT22;5497;51.388;6.780;2022-10-16T06:04:13;12.90;99.90
10889;DHT22;5497;51.388;6.780;2022-10-16T06:06:39;12.80;99.90
10889;DHT22;5497;51.388;6.780;2022-10-16T06:09:07;12.70;99.90
10889;DHT22;5497;51.388;6.780;2022-10-16T06:11:33;12.70;99.90
10889;DHT22;5497;51.388;6.780;2022-10-16T06:14:01;12.70;99.90
10889;DHT22;5497;51.388;6.780;2022-10-16T06:16:32;12.70;99.90
10889;DHT22;5497;51.388;6.780;2022-10-16T06:18:59;12.70;99.90
10889;DHT22;5497;51.388;6.780;2022-10-16T06:21:27;12.70;99.90
10889;DHT22;5497;51.388;6.780;2022-10-16T06:23:55;12.70;99.90
10889;DHT22;5497;51.388;6.780;2022-10-16T06:26:24;12.70;99.90
10889;DHT22;5497;51.388;6.780;2022-10-16T06:28:51;12.80;99.90
10889;DHT22;5497;51.388;6.780;2022-10-16T06:31:18;12.70;99.90
10889;DHT22;5497;51.388;6.780;2022-10-16T06:33:45;12.80;99.90
10889;DHT22;5497;51.388;6.780;2022-10-16T06:36:13;12.90;99.90
10889;DHT22;5497;51.388;6.780;2022-10-16T06:38:41;13.00;99.90
10889;DHT22;5497;51.388;6.780;2022-10-16T06:41:09;13.10;99.90
10889;DHT22;5497;51.388;6.780;2022-10-16T06:43:37;13.20;99.90
10889;DHT22;5497;51.388;6.780;2022-10-16T06:46:05;13.30;99.90
10889;DHT22;5497;51.388;6.780;2022-10-16T06:48:33;13.40;99.90
10889;DHT22;5497;51.388;6.780;2022-10-16T06:51:00;13.50;99.90
10889;DHT22;5497;51.388;6.780;2022-10-16T06:53:28;13.50;99.90
10889;DHT22;5497;51.388;6.780;2022-10-16T06:55:56;13.50;99.90
10889;DHT22;5497;51.388;6.780;2022-10-16T06:58:23;13.50;99.90
10889;DHT22;5497;51.388;6.780;2022-10-16T07:00:55;13.60;99.90
10889;DHT22;5497;51.388;6.780;2022-10-16T07:03:22;13.60;99.90
10889;DHT22;5497;51.388;6.780;2022-10-16T07:05:49;13.70;99.90
10889;DHT22;5497;51.388;6.780;2022-10-16T07:08:16;13.70;99.90
10889;DHT22;5497;51.388;6.780;2022-10-16T07:10:43;13.90;99.90
10889;DHT22;5497;51.388;6.780;2022-10-16T07:13:11;14.00;99.90
10889;DHT22;5497;51.388;6.780;2022-10-16T07:15:39;14.00;99.90
10889;DHT22;5497;51.388;6.780;2022-10-16T07:18:07;14.00;99.90
10889;DHT22;5497;51.388;6.780;2022-10-16T07:20:34;13.90;99.90
10889;DHT22;5497;51.388;6.780;2022-10-16T07:23:06;13.80;99.90
10889;DHT22;5497;51.388;6.780;2022-10-16T07:25:32;13.80;99.90
10889;DHT22;5497;51.388;6.780;2022-10-16T07:27:59;13.80;99.90
10889;DHT22;5497;51.388;6.780;2022-10-16T07:30:27;13.80;99.90
10889;DHT22;5497;51.388;6.780;2022-10-16T07:32:54;14.00;99.90
10889;DHT22;5497;51.388;6.780;2022-10-16T07:35:21;14.50;99.90
10889;DHT22;5497;51.388;6.780;2022-10-16T07:37:48;15.20;99.90
10889;DHT22;5497;51.388;6.780;2022-10-16T07:40:15;16.00;99.90
10889;DHT22;5497;51.388;6.780;2022-10-16T07:42:43;16.60;99.90
10889;DHT22;5497;51.388;6.780;2022-10-16T07:45:10;17.10;99.90
10889;DHT22;5497;51.388;6.780;2022-10-16T07:47:38;17.60;99.90
10889;DHT22;5497;51.388;6.780;2022-10-16T07:50:05;18.00;99.90
10889;DHT22;5497;51.388;6.780;2022-10-16T07:52:32;18.40;99.90
10889;DHT22;5497;51.388;6.780;2022-10-16T07:54:59;18.70;99.90
10889;DHT22;5497;51.388;6.780;2022-10-16T07:57:26;18.90;99.90
10889;DHT22;5497;51.388;6.780;2022-10-16T07:59:53;19.20;99.90
10889;DHT22;5497;51.388;6.780;2022-10-16T08:02:20;19.50;99.90
10889;DHT22;5497;51.388;6.780;2022-10-16T08:04:49;19.60;99.90
10889;DHT22;5497;51.388;6.780;2022-10-16T08:07:17;19.70;99.90
10889;DHT22;5497;51.388;6.780;2022-10-16T08:09:48;19.80;99.90
10889;DHT22;5497;51.388;6.780;2022-10-16T08:12:17;20.00;99.90
10889;DHT22;5497;51.388;6.780;2022-10-16T08:14:45;20.10;99.90
10889;DHT22;5497;51.388;6.780;2022-10-16T08:17:18;20.10;99.90
10889;DHT22;5497;51.388;6.780;2022-10-16T08:19:50;20.20;99.90
10889;DHT22;5497;51.388;6.780;2022-10-16T08:22:22;20.30;99.90
10889;DHT22;5497;51.388;6.780;2022-10-16T08:24:53;20.30;99.90
10889;DHT22;5497;51.388;6.780;2022-10-16T08:27:20;20.30;99.90
10889;DHT22;5497;51.388;6.780;2022-10-16T08:29:48;20.30;99.90
10889;DHT22;5497;51.388;6.780;2022-10-16T08:32:15;20.30;99.90
10889;DHT22;5497;51.388;6.780;2022-10-16T08:34:42;20.30;99.90
10889;DHT22;5497;51.388;6.780;2022-10-16T08:37:10;20.20;99.90
10889;DHT22;5497;51.388;6.780;2022-10-16T08:39:39;20.20;99.90
10889;DHT22;5497;51.388;6.780;2022-10-16T08:42:15;20.10;99.90
10889;DHT22;5497;51.388;6.780;2022-10-16T08:44:54;20.00;99.90
10889;DHT22;5497;51.388;6.780;2022-10-16T08:47:30;19.90;99.90
10889;DHT22;5497;51.388;6.780;2022-10-16T08:50:02;19.70;99.90
10889;DHT22;5497;51.388;6.780;2022-10-16T08:52:34;19.60;99.90
10889;DHT22;5497;51.388;6.780;2022-10-16T08:55:03;19.40;99.90
10889;DHT22;5497;51.388;6.780;2022-10-16T08:57:30;19.20;99.90
10889;DHT22;5497;51.388;6.780;2022-10-16T08:59:59;19.10;99.90
10889;DHT22;5497;51.388;6.780;2022-10-16T09:02:28;18.80;99.90
10889;DHT22;5497;51.388;6.780;2022-10-16T09:04:59;18.60;99.90
10889;DHT22;5497;51.388;6.780;2022-10-16T09:07:31;18.50;99.90
10889;DHT22;5497;51.388;6.780;2022-10-16T09:10:04;18.40;99.90
10889;DHT22;5497;51.388;6.780;2022-10-16T09:12:37;18.30;99.90
10889;DHT22;5497;51.388;6.780;2022-10-16T09:15:20;18.20;99.90
10889;DHT22;5497;51.388;6.780;2022-10-16T09:17:52;18.20;99.90
10889;DHT22;5497;51.388;6.780;2022-10-16T09:20:27;18.20;99.90
10889;DHT22;5497;51.388;6.780;2022-10-16T09:23:00;18.30;99.90
10889;DHT22;5497;51.388;6.780;2022-10-16T09:25:36;18.30;99.90
10889;DHT22;5497;51.388;6.780;2022-10-16T09:28:05;18.40;99.90
10889;DHT22;5497;51.388;6.780;2022-10-16T09:30:34;18.40;99.90
10889;DHT22;5497;51.388;6.780;2022-10-16T09:33:01;18.40;99.90
10889;DHT22;5497;51.388;6.780;2022-10-16T09:35:31;18.50;99.90
10889;DHT22;5497;51.388;6.780;2022-10-16T09:37:58;18.50;99.90
10889;DHT22;5497;51.388;6.780;2022-10-16T09:40:26;18.60;99.90
10889;DHT22;5497;51.388;6.780;2022-10-16T09:42:56;18.70;99.90
10889;DHT22;5497;51.388;6.780;2022-10-16T09:45:24;18.70;99.90
10889;DHT22;5497;51.388;6.780;2022-10-16T09:47:51;18.80;99.90
10889;DHT22;5497;51.388;6.780;2022-10-16T09:50:22;18.90;99.90
10889;DHT22;5497;51.388;6.780;2022-10-16T09:52:50;19.00;99.90
10889;DHT22;5497;51.388;6.780;2022-10-16T09:55:17;19.10;99.90
10889;DHT22;5497;51.388;6.780;2022-10-16T09:57:51;19.20;99.90
10889;DHT22;5497;51.388;6.780;2022-10-16T10:00:19;19.30;99.90
10889;DHT22;5497;51.388;6.780;2022-10-16T10:02:47;19.30;99.90
10889;DHT22;5497;51.388;6.780;2022-10-16T10:05:17;19.40;99.90
10889;DHT22;5497;51.388;6.780;2022-10-16T10:07:52;19.50;99.90
10889;DHT22;5497;51.388;6.780;2022-10-16T10:10:20;19.60;99.90
10889;DHT22;5497;51.388;6.780;2022-10-16T10:12:48;19.80;99.90
10889;DHT22;5497;51.388;6.780;2022-10-16T10:15:15;20.00;99.90
10889;DHT22;5497;51.388;6.780;2022-10-16T10:17:49;20.10;99.90
10889;DHT22;5497;51.388;6.780;2022-10-16T10:20:24;20.20;99.90
10889;DHT22;5497;51.388;6.780;2022-10-16T10:22:51;20.30;99.90
10889;DHT22;5497;51.388;6.780;2022-10-16T10:25:19;20.40;99.90
10889;DHT22;5497;51.388;6.780;2022-10-16T10:27:51;20.50;99.90
10889;DHT22;5497;51.388;6.780;2022-10-16T10:30:22;20.60;99.90
10889;DHT22;5497;51.388;6.780;2022-10-16T10:32:55;20.80;99.90
10889;DHT22;5497;51.388;6.780;2022-10-16T10:35:26;21.10;99.90
10889;DHT22;5497;51.388;6.780;2022-10-16T10:38:01;21.40;99.90
10889;DHT22;5497;51.388;6.780;2022-10-16T10:40:33;21.60;99.90
10889;DHT22;5497;51.388;6.780;2022-10-16T10:43:02;21.80;99.90
10889;DHT22;5497;51.388;6.780;2022-10-16T10:45:37;22.00;99.90
10889;DHT22;5497;51.388;6.780;2022-10-16T10:48:14;22.10;99.90
10889;DHT22;5497;51.388;6.780;2022-10-16T10:50:45;22.20;99.90
10889;DHT22;5497;51.388;6.780;2022-10-16T10:53:18;22.20;99.90
10889;DHT22;5497;51.388;6.780;2022-10-16T10:55:48;23.50;99.90
10889;DHT22;5497;51.388;6.780;2022-10-16T11:01:16;22.20;99.90
10889;DHT22;5497;51.388;6.780;2022-10-16T11:06:35;22.40;99.90
10889;DHT22;5497;51.388;6.780;2022-10-16T11:09:06;22.30;99.90
10889;DHT22;5497;51.388;6.780;2022-10-16T11:11:37;22.30;99.90
10889;DHT22;5497;51.388;6.780;2022-10-16T11:14:05;22.30;99.90
10889;DHT22;5497;51.388;6.780;2022-10-16T11:16:33;22.30;99.90
10889;DHT22;5497;51.388;6.780;2022-10-16T11:19:03;22.70;99.90
10889;DHT22;5497;51.388;6.780;2022-10-16T11:21:34;22.70;99.90
10889;DHT22;5497;51.388;6.780;2022-10-16T11:24:04;22.80;99.90
10889;DHT22;5497;51.388;6.780;2022-10-16T11:26:38;23.00;99.90
10889;DHT22;5497;51.388;6.780;2022-10-16T11:29:08;23.10;99.90
10889;DHT22;5497;51.388;6.780;2022-10-16T11:31:42;23.10;99.90
10889;DHT22;5497;51.388;6.780;2022-10-16T11:34:12;23.20;99.90
10889;DHT22;5497;51.388;6.780;2022-10-16T11:36:44;23.30;99.90
10889;DHT22;5497;51.388;6.780;2022-10-16T11:39:16;23.30;99.90
10889;DHT22;5497;51.388;6.780;2022-10-16T11:41:44;24.80;99.90
10889;DHT22;5497;51.388;6.780;2022-10-16T11:44:19;23.50;99.90
10889;DHT22;5497;51.388;6.780;2022-10-16T11:46:50;23.60;99.90
10889;DHT22;5497;51.388;6.780;2022-10-16T11:49:18;23.60;99.90
10889;DHT22;5497;51.388;6.780;2022-10-16T11:51:48;23.60;99.90
10889;DHT22;5497;51.388;6.780;2022-10-16T11:54:20;23.60;99.90
10889;DHT22;5497;51.388;6.780;2022-10-16T11:56:49;23.70;99.90
10889;DHT22;5497;51.388;6.780;2022-10-16T11:59:18;23.80;99.90
10889;DHT22;5497;51.388;6.780;2022-10-16T12:01:48;24.00;99.90
10889;DHT22;5497;51.388;6.780;2022-10-16T12:04:18;24.20;99.90
10889;DHT22;5497;51.388;6.780;2022-10-16T12:06:48;24.30;99.90
10889;DHT22;5497;51.388;6.780;2022-10-16T12:09:20;24.30;99.90
10889;DHT22;5497;51.388;6.780;2022-10-16T12:11:47;24.20;99.90
10889;DHT22;5497;51.388;6.780;2022-10-16T12:14:19;23.60;99.90
10889;DHT22;5497;51.388;6.780;2022-10-16T12:16:53;23.90;99.90
10889;DHT22;5497;51.388;6.780;2022-10-16T12:19:20;23.70;99.90
10889;DHT22;5497;51.388;6.780;2022-10-16T12:21:47;23.50;99.90
10889;DHT22;5497;51.388;6.780;2022-10-16T12:24:23;23.20;99.90
10889;DHT22;5497;51.388;6.780;2022-10-16T12:26:54;22.90;99.90
10889;DHT22;5497;51.388;6.780;2022-10-16T12:29:23;22.60;99.90
10889;DHT22;5497;51.388;6.780;2022-10-16T12:31:52;22.30;99.90
10889;DHT22;5497;51.388;6.780;2022-10-16T12:34:21;22.10;99.90
10889;DHT22;5497;51.388;6.780;2022-10-16T12:36:48;22.10;99.90
10889;DHT22;5497;51.388;6.780;2022-10-16T12:39:20;22.20;99.90
10889;DHT22;5497;51.388;6.780;2022-10-16T12:41:53;22.20;99.90
10889;DHT22;5497;51.388;6.780;2022-10-16T12:44:26;22.30;99.90
10889;DHT22;5497;51.388;6.780;2022-10-16T12:46:58;22.10;99.90
10889;DHT22;5497;51.388;6.780;2022-10-16T12:49:29;21.70;99.90
10889;DHT22;5497;51.388;6.780;2022-10-16T12:51:56;22.10;99.90
10889;DHT22;5497;51.388;6.780;2022-10-16T12:54:25;22.20;99.90
10889;DHT22;5497;51.388;6.780;2022-10-16T12:56:58;22.50;99.90
10889;DHT22;5497;51.388;6.780;2022-10-16T12:59:30;22.60;99.90
10889;DHT22;5497;51.388;6.780;2022-10-16T13:04:47;22.90;99.90
10889;DHT22;5497;51.388;6.780;2022-10-16T13:07:25;22.80;99.90
10889;DHT22;5497;51.388;6.780;2022-10-16T13:09:58;22.50;99.90
10889;DHT22;5497;51.388;6.780;2022-10-16T13:12:46;22.30;99.90
10889;DHT22;5497;51.388;6.780;2022-10-16T13:15:19;22.20;99.90
10889;DHT22;5497;51.388;6.780;2022-10-16T13:17:50;21.90;99.90
10889;DHT22;5497;51.388;6.780;2022-10-16T13:20:21;21.70;99.90
10889;DHT22;5497;51.388;6.780;2022-10-16T13:22:51;21.50;99.90
10889;DHT22;5497;51.388;6.780;2022-10-16T13:25:23;21.30;99.90
10889;DHT22;5497;51.388;6.780;2022-10-16T13:27:56;21.10;99.90
10889;DHT22;5497;51.388;6.780;2022-10-16T13:30:31;20.40;99.90
10889;DHT22;5497;51.388;6.780;2022-10-16T13:33:00;20.90;99.90
10889;DHT22;5497;51.388;6.780;2022-10-16T13:35:28;20.80;99.90
10889;DHT22;5497;51.388;6.780;2022-10-16T13:38:05;20.80;99.90
10889;DHT22;5497;51.388;6.780;2022-10-16T13:40:31;20.80;99.90
10889;DHT22;5497;51.388;6.780;2022-10-16T13:43:01;20.90;99.90
10889;DHT22;5497;51.388;6.780;2022-10-16T13:45:28;20.90;99.90
10889;DHT22;5497;51.388;6.780;2022-10-16T13:48:02;21.00;99.90
10889;DHT22;5497;51.388;6.780;2022-10-16T13:50:28;21.10;99.90
10889;DHT22;5497;51.388;6.780;2022-10-16T13:53:03;21.20;99.90
10889;DHT22;5497;51.388;6.780;2022-10-16T13:55:29;21.30;99.90
10889;DHT22;5497;51.388;6.780;2022-10-16T13:58:05;21.50;99.90
10889;DHT22;5497;51.388;6.780;2022-10-16T14:00:34;21.50;99.90
10889;DHT22;5497;51.388;6.780;2022-10-16T14:03:03;21.60;99.90
10889;DHT22;5497;51.388;6.780;2022-10-16T14:05:30;21.70;99.90
10889;DHT22;5497;51.388;6.780;2022-10-16T14:07:56;21.80;99.90
10889;DHT22;5497;51.388;6.780;2022-10-16T14:10:25;21.80;99.90
10889;DHT22;5497;51.388;6.780;2022-10-16T14:12:56;21.90;99.90
10889;DHT22;5497;51.388;6.780;2022-10-16T14:15:25;21.80;99.90
10889;DHT22;5497;51.388;6.780;2022-10-16T14:17:52;21.70;99.90
10889;DHT22;5497;51.388;6.780;2022-10-16T14:20:20;21.60;99.90
10889;DHT22;5497;51.388;6.780;2022-10-16T14:22:47;21.50;99.90
10889;DHT22;5497;51.388;6.780;2022-10-16T14:25:24;21.40;99.90
10889;DHT22;5497;51.388;6.780;2022-10-16T14:27:56;21.30;99.90
10889;DHT22;5497;51.388;6.780;2022-10-16T14:30:25;21.20;99.90
10889;DHT22;5497;51.388;6.780;2022-10-16T14:32:53;21.20;99.90
10889;DHT22;5497;51.388;6.780;2022-10-16T14:35:24;21.20;99.90
10889;DHT22;5497;51.388;6.780;2022-10-16T14:37:51;21.20;99.90
10889;DHT22;5497;51.388;6.780;2022-10-16T14:40:18;21.20;99.90
10889;DHT22;5497;51.388;6.780;2022-10-16T14:42:45;21.20;99.90
10889;DHT22;5497;51.388;6.780;2022-10-16T14:45:12;21.10;99.90
10889;DHT22;5497;51.388;6.780;2022-10-16T14:47:46;21.00;99.90
10889;DHT22;5497;51.388;6.780;2022-10-16T14:50:14;20.90;99.90
10889;DHT22;5497;51.388;6.780;2022-10-16T14:52:41;20.90;99.90
10889;DHT22;5497;51.388;6.780;2022-10-16T14:55:09;20.80;99.90
10889;DHT22;5497;51.388;6.780;2022-10-16T14:57:35;20.80;99.90
10889;DHT22;5497;51.388;6.780;2022-10-16T15:00:04;20.00;99.90
10889;DHT22;5497;51.388;6.780;2022-10-16T15:02:35;20.70;99.90
10889;DHT22;5497;51.388;6.780;2022-10-16T15:05:10;20.60;99.90
10889;DHT22;5497;51.388;6.780;2022-10-16T15:07:38;20.40;99.90
10889;DHT22;5497;51.388;6.780;2022-10-16T15:10:05;20.40;99.90
10889;DHT22;5497;51.388;6.780;2022-10-16T15:12:32;20.30;99.90
10889;DHT22;5497;51.388;6.780;2022-10-16T15:14:58;20.10;99.90
10889;DHT22;5497;51.388;6.780;2022-10-16T15:17:25;20.10;99.90
10889;DHT22;5497;51.388;6.780;2022-10-16T15:19:52;19.90;99.90
10889;DHT22;5497;51.388;6.780;2022-10-16T15:22:20;19.80;99.90
10889;DHT22;5497;51.388;6.780;2022-10-16T15:24:48;19.70;99.90
10889;DHT22;5497;51.388;6.780;2022-10-16T15:27:15;19.60;99.90
10889;DHT22;5497;51.388;6.780;2022-10-16T15:29:42;19.50;99.90
10889;DHT22;5497;51.388;6.780;2022-10-16T15:32:09;19.40;99.90
10889;DHT22;5497;51.388;6.780;2022-10-16T15:34:35;19.30;99.90
10889;DHT22;5497;51.388;6.780;2022-10-16T15:37:02;19.20;99.90
10889;DHT22;5497;51.388;6.780;2022-10-16T15:39:30;19.10;99.90
10889;DHT22;5497;51.388;6.780;2022-10-16T15:41:57;19.00;99.90
10889;DHT22;5497;51.388;6.780;2022-10-16T15:44:24;18.90;99.90
10889;DHT22;5497;51.388;6.780;2022-10-16T15:46:55;18.80;99.90
10889;DHT22;5497;51.388;6.780;2022-10-16T15:49:22;18.70;99.90
10889;DHT22;5497;51.388;6.780;2022-10-16T15:51:48;18.60;99.90
10889;DHT22;5497;51.388;6.780;2022-10-16T15:54:16;18.50;99.90
10889;DHT22;5497;51.388;6.780;2022-10-16T15:56:48;18.30;99.90
10889;DHT22;5497;51.388;6.780;2022-10-16T15:59:15;18.30;99.90
10889;DHT22;5497;51.388;6.780;2022-10-16T16:01:42;18.20;99.90
10889;DHT22;5497;51.388;6.780;2022-10-16T16:04:09;18.20;99.90
10889;DHT22;5497;51.388;6.780;2022-10-16T16:06:36;18.00;99.90
10889;DHT22;5497;51.388;6.780;2022-10-16T16:09:04;18.00;99.90
10889;DHT22;5497;51.388;6.780;2022-10-16T16:11:31;17.90;99.90